Time;durP1;ratioP1;P1;durP2;ratioP2;P2;SDS_P1;SDS_P2;PMS_P1;PMS_P2;Temp;Humidity;BMP_temperature;BMP_pressure;BME280_temperature;BME280_humidity;BME280_pressure;Samples;Min_cycle;Max_cycle;Signal;HPM_P1;HPM_P2
2024/02/14 00:00:14;;;;;;;3.08;1.85;;;3.10;63.60;;;;;;5092413;28;20219;-71
2024/02/14 00:02:59;;;;;;;3.45;1.88;;;3.00;63.30;;;;;;5092124;28;20054;-71
2024/02/14 00:05:26;;;;;;;5.47;2.78;;;3.00;63.80;;;;;;5092840;28;20024;-71
2024/02/14 00:07:52;;;;;;;3.80;2.40;;;2.90;63.60;;;;;;5091266;28;20046;-72
2024/02/14 00:10:18;;;;;;;10.10;5.35;;;2.90;64.10;;;;;;5091907;28;20496;-71
2024/02/14 00:12:44;;;;;;;9.85;4.13;;;2.90;63.90;;;;;;5092935;28;20526;-71
2024/02/14 00:15:10;;;;;;;5.60;3.78;;;2.90;63.80;;;;;;5092618;28;20036;-71
2024/02/14 00:17:36;;;;;;;9.27;3.70;;;2.90;63.70;;;;;;5074455;28;20443;-72
2024/02/14 00:20:04;;;;;;;6.00;3.35;;;2.90;63.60;;;;;;5108009;28;20028;-72
2024/02/14 00:22:31;;;;;;;8.07;3.20;;;2.80;63.50;;;;;;5107590;28;20064;-71
2024/02/14 00:24:57;;;;;;;6.22;2.45;;;2.80;63.60;;;;;;5091442;28;20388;-72
2024/02/14 00:27:24;;;;;;;5.05;2.60;;;2.80;63.90;;;;;;5092622;28;20070;-71
2024/02/14 00:29:50;;;;;;;5.88;2.90;;;2.70;63.70;;;;;;5090789;28;20116;-71
2024/02/14 00:32:16;;;;;;;4.18;2.70;;;2.70;63.90;;;;;;5090633;28;20489;-71
2024/02/14 00:34:43;;;;;;;4.47;2.78;;;2.70;64.20;;;;;;5073905;28;20047;-71
2024/02/14 00:37:08;;;;;;;;;;;2.70;64.20;;;;;;5092886;28;20039;-71
2024/02/14 00:39:34;;;;;;;5.85;3.20;;;2.60;64.20;;;;;;5090960;28;20011;-72
2024/02/14 00:42:00;;;;;;;3.45;1.98;;;2.60;64.40;;;;;;5091759;28;20036;-71
2024/02/14 00:44:26;;;;;;;4.93;2.00;;;2.60;64.40;;;;;;5092103;28;20369;-72
2024/02/14 00:47:04;;;;;;;14.27;5.50;;;2.60;64.40;;;;;;5091999;28;20044;-72
2024/02/14 00:49:31;;;;;;;10.52;5.65;;;2.60;64.60;;;;;;5090738;28;20040;-72
2024/02/14 00:51:57;;;;;;;9.30;3.55;;;2.60;64.70;;;;;;5091445;28;20050;-72
2024/02/14 00:54:23;;;;;;;6.72;3.05;;;2.60;64.50;;;;;;5092105;28;20028;-72
2024/02/14 00:56:49;;;;;;;4.25;3.33;;;2.60;64.50;;;;;;5090683;28;20040;-71
2024/02/14 00:59:16;;;;;;;5.88;3.33;;;2.50;64.80;;;;;;5090455;28;20077;-72
2024/02/14 01:01:42;;;;;;;5.38;3.75;;;2.40;64.40;;;;;;5090908;28;20082;-72
2024/02/14 01:04:08;;;;;;;5.25;2.75;;;2.40;64.10;;;;;;5090480;28;20076;-71
2024/02/14 01:06:34;;;;;;;9.50;3.28;;;2.40;64.00;;;;;;5091739;28;20504;-72
2024/02/14 01:09:00;;;;;;;3.03;1.67;;;2.30;63.80;;;;;;5090233;28;20032;-71
2024/02/14 01:11:26;;;;;;;4.93;2.08;;;2.30;63.90;;;;;;5089606;28;20047;-72
2024/02/14 01:13:52;;;;;;;2.60;2.00;;;2.20;64.20;;;;;;5090261;28;20039;-72
2024/02/14 01:16:18;;;;;;;3.33;2.17;;;2.20;64.30;;;;;;5090511;28;20075;-72
2024/02/14 01:18:44;;;;;;;3.92;2.22;;;2.20;65.20;;;;;;5091551;28;20036;-71
2024/02/14 01:21:10;;;;;;;10.85;4.72;;;2.20;64.40;;;;;;5091322;28;20032;-71
2024/02/14 01:23:36;;;;;;;2.75;1.42;;;2.30;64.40;;;;;;5090600;28;20427;-72
2024/02/14 01:26:02;;;;;;;2.35;1.40;;;2.10;64.00;;;;;;5091757;28;20036;-71
2024/02/14 01:28:28;;;;;;;5.78;2.58;;;2.10;64.40;;;;;;5091656;28;20042;-71
2024/02/14 01:30:56;;;;;;;6.13;2.20;;;2.10;64.80;;;;;;5089044;28;20468;-71
2024/02/14 01:33:23;;;;;;;9.20;4.18;;;2.10;64.70;;;;;;5091846;28;20036;-71
2024/02/14 01:35:49;;;;;;;4.57;1.98;;;2.10;64.50;;;;;;5091281;28;20480;-72
2024/02/14 01:38:15;;;;;;;5.50;2.90;;;2.10;64.60;;;;;;5090330;28;20512;-71
2024/02/14 01:40:59;;;;;;;5.70;3.25;;;2.10;64.70;;;;;;5090793;28;20062;-71
2024/02/14 01:43:25;;;;;;;6.35;3.55;;;2.00;65.10;;;;;;5090288;28;20507;-71
2024/02/14 01:45:52;;;;;;;6.18;2.40;;;2.00;65.20;;;;;;5091131;28;20040;-71
2024/02/14 01:48:18;;;;;;;6.93;2.63;;;2.00;65.10;;;;;;5091660;28;20039;-72
2024/02/14 01:50:45;;;;;;;5.40;1.98;;;2.00;64.90;;;;;;5089139;28;20443;-71
2024/02/14 01:53:12;;;;;;;3.75;1.67;;;2.00;64.90;;;;;;5090034;28;20025;-71
2024/02/14 01:55:38;;;;;;;5.32;2.05;;;2.00;64.80;;;;;;5089871;28;20439;-72
2024/02/14 01:58:05;;;;;;;9.07;3.53;;;2.00;64.90;;;;;;5089752;28;20490;-72
2024/02/14 02:00:32;;;;;;;12.25;4.80;;;2.00;64.30;;;;;;5090629;28;20044;-71
2024/02/14 02:02:59;;;;;;;10.70;4.75;;;2.00;64.90;;;;;;5090903;28;20066;-71
2024/02/14 02:05:25;;;;;;;9.65;4.55;;;2.00;64.80;;;;;;5089772;28;20040;-71
2024/02/14 02:07:51;;;;;;;;;;;2.00;64.90;;;;;;5092003;28;20030;-71
2024/02/14 02:10:17;;;;;;;5.00;2.63;;;2.00;65.00;;;;;;5088954;28;19946;-71
2024/02/14 02:12:43;;;;;;;7.03;2.75;;;2.00;65.10;;;;;;5090625;28;20378;-71
2024/02/14 02:17:54;;;;;;;6.43;3.92;;;1.90;65.90;;;;;;5095109;28;20131;-71
2024/02/14 02:20:21;;;;;;;3.10;1.95;;;1.90;65.70;;;;;;5092931;28;20042;-72
2024/02/14 02:22:48;;;;;;;3.63;1.70;;;1.90;65.60;;;;;;5094679;28;20041;-71
2024/02/14 02:25:14;;;;;;;4.13;2.03;;;1.90;65.40;;;;;;5076779;28;20063;-71
2024/02/14 02:27:40;;;;;;;;;;;1.90;65.70;;;;;;5095280;28;20086;-72
2024/02/14 02:30:08;;;;;;;2.88;1.73;;;1.80;65.80;;;;;;5092677;28;20003;-71
2024/02/14 02:32:34;;;;;;;3.42;1.35;;;1.70;65.90;;;;;;5094723;28;20123;-71
2024/02/14 02:35:01;;;;;;;;;;;1.70;65.60;;;;;;5095256;28;20028;-72
2024/02/14 02:37:29;;;;;;;2.17;1.42;;;1.70;66.50;;;;;;5093339;28;19926;-72
2024/02/14 02:39:56;;;;;;;5.85;2.75;;;1.70;66.20;;;;;;5093074;28;20044;-72
2024/02/14 02:42:22;;;;;;;3.35;1.38;;;1.60;65.60;;;;;;5092651;28;20040;-72
2024/02/14 02:44:50;;;;;;;2.92;1.90;;;1.70;65.30;;;;;;5092990;28;20028;-72
2024/02/14 02:47:17;;;;;;;1.75;1.13;;;1.60;65.00;;;;;;5094445;28;20036;-71
2024/02/14 02:50:03;;;;;;;3.15;1.55;;;1.60;65.10;;;;;;5076001;28;20024;-70
2024/02/14 02:52:30;;;;;;;4.82;1.77;;;1.50;65.30;;;;;;5075901;28;20133;-72
2024/02/14 02:54:57;;;;;;;3.25;1.65;;;1.50;65.60;;;;;;5092849;28;20507;-72
2024/02/14 02:57:23;;;;;;;4.95;2.13;;;1.50;65.70;;;;;;5094389;28;20066;-72
2024/02/14 02:59:49;;;;;;;5.32;2.95;;;1.50;66.50;;;;;;5092728;28;20107;-71
2024/02/14 03:02:16;;;;;;;;;;;1.50;65.00;;;;;;5092997;28;20040;-72
2024/02/14 03:04:42;;;;;;;5.65;2.53;;;1.50;65.50;;;;;;5093006;28;19920;-72
2024/02/14 03:07:27;;;;;;;3.78;2.00;;;1.50;65.80;;;;;;5092681;28;20032;-71
2024/02/14 03:09:53;;;;;;;5.25;1.63;;;1.40;66.10;;;;;;5093534;28;20032;-71
2024/02/14 03:12:20;;;;;;;4.90;1.83;;;1.40;66.00;;;;;;5093268;28;20055;-72
2024/02/14 03:14:46;;;;;;;4.88;1.20;;;1.40;65.90;;;;;;5092606;28;20507;-71
2024/02/14 03:17:12;;;;;;;;;;;1.40;65.80;;;;;;5093137;28;20048;-72
2024/02/14 03:19:40;;;;;;;3.78;2.08;;;1.30;65.90;;;;;;5092498;28;19922;-72
2024/02/14 03:22:08;;;;;;;3.70;1.85;;;1.30;66.20;;;;;;5108787;28;20541;-71
2024/02/14 03:24:36;;;;;;;3.00;1.92;;;1.20;66.00;;;;;;5092718;28;20059;-72
2024/02/14 03:27:05;;;;;;;5.75;1.10;;;1.20;65.50;;;;;;5092345;28;20048;-72
2024/02/14 03:29:31;;;;;;;3.42;1.65;;;1.20;66.10;;;;;;5092207;28;20020;-72
2024/02/14 03:31:58;;;;;;;;;;;1.20;66.30;;;;;;5092032;28;20051;-72
2024/02/14 03:34:25;;;;;;;1.30;0.63;;;1.20;66.40;;;;;;5092426;28;20386;-72
2024/02/14 03:36:51;;;;;;;5.18;2.58;;;1.10;66.70;;;;;;5091792;28;20058;-71
2024/02/14 03:39:17;;;;;;;2.20;1.05;;;1.10;67.10;;;;;;5091874;28;20028;-72
2024/02/14 03:41:46;;;;;;;2.83;1.25;;;1.10;68.10;;;;;;5091341;28;20334;-72
2024/02/14 03:44:12;;;;;;;11.70;3.28;;;1.10;66.90;;;;;;5092226;28;20046;-71
2024/02/14 03:46:38;;;;;;;8.02;4.93;;;1.10;66.80;;;;;;5074911;28;20059;-72
2024/02/14 03:49:04;;;;;;;10.25;4.32;;;1.20;67.70;;;;;;5093263;28;20101;-72
2024/02/14 03:51:30;;;;;;;13.65;6.00;;;1.20;67.10;;;;;;5091081;28;20048;-72
2024/02/14 03:53:56;;;;;;;7.32;3.60;;;1.10;67.30;;;;;;5074668;28;20028;-72
2024/02/14 03:56:23;;;;;;;10.93;3.83;;;1.10;67.40;;;;;;5092963;28;20032;-72
2024/02/14 03:58:49;;;;;;;11.05;6.07;;;1.10;67.20;;;;;;5091533;28;20043;-72
2024/02/14 04:01:15;;;;;;;4.03;3.35;;;1.20;66.90;;;;;;5092371;28;20340;-72
2024/02/14 04:03:41;;;;;;;3.42;1.85;;;1.10;66.90;;;;;;5092522;28;20056;-72
2024/02/14 04:06:08;;;;;;;3.25;2.03;;;1.10;67.00;;;;;;5075113;28;20047;-72
2024/02/14 04:08:35;;;;;;;3.83;2.40;;;1.10;67.00;;;;;;5093037;28;20043;-71
2024/02/14 04:11:01;;;;;;;1.38;1.20;;;1.10;66.70;;;;;;5092089;28;20047;-72
2024/02/14 04:13:27;;;;;;;;;;;1.10;66.60;;;;;;5091899;28;20105;-71
2024/02/14 04:15:53;;;;;;;6.65;2.33;;;1.10;66.50;;;;;;5092614;28;19912;-72
2024/02/14 04:18:19;;;;;;;2.22;1.42;;;1.10;66.20;;;;;;5092940;28;20094;-72
2024/02/14 04:20:45;;;;;;;3.10;1.10;;;1.00;66.60;;;;;;5090388;28;20036;-72
2024/02/14 04:23:11;;;;;;;2.22;1.55;;;1.00;66.70;;;;;;5092838;28;20082;-72
2024/02/14 04:25:37;;;;;;;3.35;0.93;;;1.00;66.60;;;;;;5090968;28;20043;-72
2024/02/14 04:28:04;;;;;;;1.45;0.90;;;1.00;66.60;;;;;;5091043;28;20404;-72
2024/02/14 04:30:30;;;;;;;2.50;1.75;;;0.90;65.80;;;;;;5090365;28;20059;-71
2024/02/14 04:32:56;;;;;;;8.18;2.45;;;0.90;66.40;;;;;;5092522;28;20044;-72
2024/02/14 04:35:22;;;;;;;3.70;1.55;;;1.00;67.40;;;;;;5073489;28;20503;-72
2024/02/14 04:37:49;;;;;;;2.95;1.83;;;1.00;66.40;;;;;;5090829;28;20040;-71
2024/02/14 04:40:15;;;;;;;2.00;0.90;;;0.90;66.70;;;;;;5090419;28;20127;-72
2024/02/14 04:42:42;;;;;;;3.30;1.75;;;0.80;66.60;;;;;;5092117;28;20040;-71
2024/02/14 04:45:08;;;;;;;2.03;1.25;;;0.80;66.80;;;;;;5091995;28;20036;-72
2024/02/14 04:47:34;;;;;;;;;;;0.90;67.10;;;;;;5092722;28;20122;-72
2024/02/14 04:50:03;;;;;;;2.30;1.05;;;0.80;67.30;;;;;;5091999;28;19923;-71
2024/02/14 04:52:30;;;;;;;2.15;1.42;;;0.80;67.40;;;;;;5091765;28;20044;-72
2024/02/14 04:54:56;;;;;;;1.98;0.90;;;0.70;67.30;;;;;;5091835;28;20028;-71
2024/02/14 04:57:23;;;;;;;1.00;0.70;;;0.70;67.00;;;;;;5091832;28;20047;-72
2024/02/14 04:59:49;;;;;;;1.95;1.25;;;0.70;67.50;;;;;;5090405;28;20047;-72
2024/02/14 05:02:15;;;;;;;4.47;1.42;;;0.60;68.10;;;;;;5091317;28;20036;-72
2024/02/14 05:04:41;;;;;;;;;;;0.60;67.80;;;;;;5092340;28;20439;-72
2024/02/14 05:07:07;;;;;;;1.27;0.47;;;0.60;67.80;;;;;;5091762;28;19927;-72
2024/02/14 05:09:33;;;;;;;0.52;0.38;;;0.60;67.90;;;;;;5090277;28;20109;-72
2024/02/14 05:11:59;;;;;;;2.65;1.35;;;0.60;67.60;;;;;;5090979;28;20036;-72
2024/02/14 05:14:31;;;;;;;2.53;1.83;;;0.60;67.40;;;;;;5091604;28;20099;-72
2024/02/14 05:16:57;;;;;;;1.23;0.75;;;0.60;67.50;;;;;;5107126;28;20078;-71
2024/02/14 05:19:23;;;;;;;1.83;1.13;;;0.60;67.50;;;;;;5091308;28;20393;-71
2024/02/14 05:21:49;;;;;;;;;;;0.60;67.60;;;;;;5089901;28;20040;-72
2024/02/14 05:24:15;;;;;;;1.42;1.25;;;0.60;67.60;;;;;;5090212;28;20444;-71
2024/02/14 05:26:41;;;;;;;;;;;0.60;67.40;;;;;;5091928;28;20036;-72
2024/02/14 05:29:08;;;;;;;1.55;0.93;;;0.60;67.40;;;;;;5089769;28;19916;-71
2024/02/14 05:31:55;;;;;;;2.38;1.42;;;0.50;67.50;;;;;;5089274;28;20431;-72
2024/02/14 05:34:21;;;;;;;2.85;1.92;;;0.50;67.80;;;;;;5091380;28;20123;-71
2024/02/14 05:36:47;;;;;;;;;;;0.40;67.60;;;;;;5090562;28;20036;-72
2024/02/14 05:41:58;;;;;;;3.20;1.73;;;0.40;67.60;;;;;;5089395;28;20131;-72
2024/02/14 05:44:27;;;;;;;2.58;1.58;;;0.50;67.80;;;;;;5089375;28;20028;-72
2024/02/14 05:46:53;;;;;;;1.40;1.30;;;0.50;67.90;;;;;;5072963;28;20123;-72
2024/02/14 05:49:19;;;;;;;4.85;2.35;;;0.50;68.10;;;;;;5093354;28;20024;-72
2024/02/14 05:51:45;;;;;;;2.78;1.58;;;0.50;68.40;;;;;;5093343;28;20396;-72
2024/02/14 05:54:11;;;;;;;1.60;1.23;;;0.50;68.20;;;;;;5095239;28;20035;-72
2024/02/14 05:56:37;;;;;;;4.18;1.17;;;0.50;68.20;;;;;;5093953;28;20036;-72
2024/02/14 05:59:03;;;;;;;1.02;0.93;;;0.50;68.20;;;;;;5093750;28;20040;-72
2024/02/14 06:01:29;;;;;;;4.97;2.30;;;0.50;68.00;;;;;;5110214;28;20036;-72
2024/02/14 06:03:55;;;;;;;2.60;1.55;;;0.50;67.90;;;;;;5093316;28;20620;-72
2024/02/14 06:06:23;;;;;;;1.67;1.23;;;0.50;67.90;;;;;;5094163;28;20032;-72
2024/02/14 06:08:49;;;;;;;4.28;2.03;;;0.40;67.80;;;;;;5093453;28;20544;-72
2024/02/14 06:11:16;;;;;;;1.60;0.68;;;0.50;67.90;;;;;;5075978;28;20051;-72
2024/02/14 06:13:42;;;;;;;3.50;1.83;;;0.50;67.80;;;;;;5093388;28;20066;-72
2024/02/14 06:16:08;;;;;;;;;;;0.50;67.90;;;;;;5095306;28;20036;-71
2024/02/14 06:18:35;;;;;;;3.63;2.60;;;0.40;67.70;;;;;;5093609;28;19922;-71
2024/02/14 06:21:01;;;;;;;3.85;2.13;;;0.40;67.70;;;;;;5092952;28;20040;-72
2024/02/14 06:23:27;;;;;;;4.07;2.20;;;0.40;67.80;;;;;;5093639;28;20082;-71
2024/02/14 06:25:53;;;;;;;5.80;2.45;;;0.50;68.30;;;;;;5094660;28;20071;-72
2024/02/14 06:28:19;;;;;;;2.42;1.42;;;0.50;68.20;;;;;;5093157;28;20036;-72
2024/02/14 06:30:45;;;;;;;2.50;1.52;;;0.40;68.10;;;;;;5092687;28;20480;-72
2024/02/14 06:33:11;;;;;;;2.38;1.13;;;0.50;68.30;;;;;;5093275;28;20032;-72
2024/02/14 06:35:37;;;;;;;3.83;1.27;;;0.50;68.10;;;;;;5094740;28;20477;-72
2024/02/14 06:38:03;;;;;;;2.75;1.77;;;0.60;68.10;;;;;;5094691;28;20082;-72
2024/02/14 06:40:29;;;;;;;;;;;0.50;68.10;;;;;;5092978;28;20035;-72
2024/02/14 06:42:55;;;;;;;8.15;4.43;;;0.50;68.20;;;;;;5093129;28;20233;-71
2024/02/14 06:45:21;;;;;;;2.67;2.13;;;0.50;68.10;;;;;;5093084;28;20028;-72
2024/02/14 06:47:47;;;;;;;6.07;2.33;;;0.60;68.00;;;;;;5094291;28;20078;-72
2024/02/14 06:50:13;;;;;;;4.25;1.52;;;0.70;67.90;;;;;;5093738;28;20036;-72
2024/02/14 06:52:39;;;;;;;5.75;2.88;;;0.70;67.60;;;;;;5094563;28;20495;-72
2024/02/14 06:55:06;;;;;;;7.20;2.15;;;0.90;67.30;;;;;;5076125;28;20032;-72
2024/02/14 06:57:32;;;;;;;3.35;1.30;;;0.90;66.30;;;;;;5093892;28;20064;-72
2024/02/14 06:59:58;;;;;;;1.85;0.82;;;1.00;66.80;;;;;;5092309;28;20609;-71
2024/02/14 07:02:27;;;;;;;2.00;1.20;;;1.00;66.40;;;;;;5093600;28;20120;-72
2024/02/14 07:04:54;;;;;;;6.07;3.67;;;1.00;66.30;;;;;;5092740;28;20036;-72
2024/02/14 07:07:20;;;;;;;3.63;2.63;;;0.90;65.80;;;;;;5093968;28;20074;-72
2024/02/14 07:09:47;;;;;;;5.47;1.20;;;1.00;66.50;;;;;;5092310;28;20028;-72
2024/02/14 07:12:13;;;;;;;4.90;2.50;;;1.00;66.30;;;;;;5091919;28;20044;-72
2024/02/14 07:14:39;;;;;;;10.07;4.72;;;1.10;66.50;;;;;;5093903;28;20515;-72
2024/02/14 07:17:05;;;;;;;6.32;4.15;;;1.10;66.70;;;;;;5075510;28;20063;-72
2024/02/14 07:19:31;;;;;;;4.30;1.88;;;1.10;66.80;;;;;;5092362;28;20512;-72
2024/02/14 07:21:57;;;;;;;;;;;1.20;66.90;;;;;;5109336;28;20098;-72
2024/02/14 07:24:23;;;;;;;3.70;2.33;;;1.20;67.00;;;;;;5092324;28;19999;-72
2024/02/14 07:26:49;;;;;;;9.65;4.65;;;1.20;67.20;;;;;;5093593;28;20047;-72
2024/02/14 07:29:15;;;;;;;4.75;3.45;;;1.30;67.40;;;;;;5092019;28;20485;-72
2024/02/14 07:31:41;;;;;;;5.30;3.03;;;1.30;67.40;;;;;;5092925;28;20385;-72
2024/02/14 07:34:07;;;;;;;6.68;3.65;;;1.40;67.30;;;;;;5093530;28;20459;-72
2024/02/14 07:36:33;;;;;;;10.93;3.60;;;1.40;67.40;;;;;;5093281;28;20052;-72
2024/02/14 07:38:59;;;;;;;8.13;3.90;;;1.50;67.50;;;;;;5091963;28;20038;-72
2024/02/14 07:41:25;;;;;;;3.88;2.30;;;1.60;67.90;;;;;;5092776;28;20032;-72
2024/02/14 07:43:52;;;;;;;11.07;4.32;;;1.60;67.80;;;;;;5074894;28;20032;-72
2024/02/14 07:46:38;;;;;;;13.13;6.93;;;1.70;67.60;;;;;;5093103;28;20040;-72
2024/02/14 07:49:04;;;;;;;4.95;3.05;;;1.80;68.00;;;;;;5091992;28;20036;-72
2024/02/14 07:51:36;;;;;;;;;;;1.80;68.10;;;;;;5093081;28;20040;-72
2024/02/14 07:54:03;;;;;;;4.65;3.22;;;1.90;68.40;;;;;;5092778;28;20292;-71
2024/02/14 07:56:31;;;;;;;7.60;3.63;;;1.90;68.00;;;;;;5091711;28;20028;-72
2024/02/14 07:58:57;;;;;;;8.80;4.18;;;1.90;67.60;;;;;;5092468;28;20111;-72
2024/02/14 08:01:23;;;;;;;7.90;4.72;;;2.00;69.00;;;;;;5091060;28;20031;-72
2024/02/14 08:03:49;;;;;;;;;;;2.10;68.60;;;;;;5091975;28;20048;-72
2024/02/14 08:06:15;;;;;;;7.45;3.30;;;2.20;69.00;;;;;;5092791;28;19993;-72
2024/02/14 08:08:41;;;;;;;5.70;3.28;;;2.20;68.70;;;;;;5091350;28;20528;-71
2024/02/14 08:11:08;;;;;;;8.32;3.40;;;2.30;68.50;;;;;;5089724;28;20103;-72
2024/02/14 08:13:34;;;;;;;3.85;2.20;;;2.40;68.20;;;;;;5091391;28;20028;-71
2024/02/14 08:16:00;;;;;;;;;;;2.50;69.20;;;;;;5075327;28;20369;-71
2024/02/14 08:18:29;;;;;;;4.53;2.05;;;2.60;69.10;;;;;;5091408;28;19922;-71
2024/02/14 08:20:55;;;;;;;3.58;1.95;;;2.60;68.00;;;;;;5073926;28;20408;-72
2024/02/14 08:23:21;;;;;;;4.35;2.42;;;2.80;68.80;;;;;;5092887;28;20033;-72
2024/02/14 08:25:48;;;;;;;4.18;3.20;;;2.90;68.50;;;;;;5092665;28;20028;-72
2024/02/14 08:28:15;;;;;;;5.50;2.85;;;3.10;68.10;;;;;;5107800;28;20127;-72
2024/02/14 08:30:40;;;;;;;;;;;3.20;67.70;;;;;;5073991;28;20040;-72
2024/02/14 08:33:07;;;;;;;5.57;2.67;;;3.40;68.00;;;;;;5092615;28;19965;-72
2024/02/14 08:35:33;;;;;;;4.28;2.25;;;3.60;67.50;;;;;;5091990;28;20038;-72
2024/02/14 08:37:59;;;;;;;3.00;1.90;;;3.90;67.50;;;;;;5090928;28;20136;-71
2024/02/14 08:40:25;;;;;;;3.08;2.38;;;4.20;67.10;;;;;;5090104;28;20044;-72
2024/02/14 08:42:51;;;;;;;1.92;0.90;;;5.80;64.40;;;;;;5090635;28;20485;-72
2024/02/14 08:45:17;;;;;;;1.50;1.05;;;7.40;59.80;;;;;;5090651;28;20035;-72
2024/02/14 08:48:02;;;;;;;3.92;2.08;;;8.80;56.30;;;;;;5090790;28;20044;-72
2024/02/14 08:50:30;;;;;;;2.80;1.38;;;10.10;52.70;;;;;;5091115;28;20040;-72
2024/02/14 08:52:56;;;;;;;1.92;1.10;;;11.30;51.20;;;;;;5090633;28;20043;-72
2024/02/14 08:55:22;;;;;;;1.45;1.33;;;12.40;46.40;;;;;;5092330;28;20538;-72
2024/02/14 08:57:48;;;;;;;4.90;1.25;;;13.40;45.10;;;;;;5090431;28;20055;-72
2024/02/14 09:00:19;;;;;;;0.30;0.30;;;14.30;42.50;;;;;;5072876;28;20039;-72
2024/02/14 09:02:49;;;;;;;1.30;0.88;;;15.10;40.30;;;;;;5090261;28;20040;-72
2024/02/14 09:05:16;;;;;;;2.47;1.38;;;15.90;38.90;;;;;;5090398;28;20515;-72
2024/02/14 09:07:44;;;;;;;1.80;0.80;;;15.60;38.80;;;;;;5090450;28;20102;-72
2024/02/14 09:10:12;;;;;;;;;;;16.20;38.40;;;;;;5073195;28;20059;-72
2024/02/14 09:12:41;;;;;;;4.25;3.63;;;16.60;37.30;;;;;;5091818;28;19923;-71
2024/02/14 09:15:08;;;;;;;1.38;1.15;;;16.40;36.80;;;;;;5073589;28;20025;-72
2024/02/14 09:17:34;;;;;;;1.60;0.80;;;16.90;34.90;;;;;;5090129;28;20119;-72
2024/02/14 09:20:01;;;;;;;;;;;17.20;34.50;;;;;;5092277;28;20107;-72
2024/02/14 09:22:28;;;;;;;0.63;0.55;;;16.90;34.20;;;;;;5089384;28;19920;-72
2024/02/14 09:24:55;;;;;;;1.38;0.82;;;17.40;33.80;;;;;;5089993;28;20025;-72
2024/02/14 09:27:21;;;;;;;1.98;1.00;;;18.10;32.70;;;;;;5089841;28;20036;-72
2024/02/14 09:29:46;;;;;;;3.83;1.48;;;18.80;31.30;;;;;;5091052;28;20579;-72
2024/02/14 09:32:13;;;;;;;2.75;1.08;;;19.40;29.70;;;;;;5089358;28;20082;-72
2024/02/14 09:34:39;;;;;;;1.65;0.95;;;19.00;29.30;;;;;;5090082;28;20032;-72
2024/02/14 09:37:06;;;;;;;1.92;1.42;;;18.60;30.10;;;;;;5091268;28;20047;-72
2024/02/14 09:39:36;;;;;;;1.90;1.17;;;18.40;30.00;;;;;;5089901;28;20035;-72
2024/02/14 09:42:34;;;;;;;2.53;0.85;;;18.30;29.80;;;;;;5090899;28;20040;-72
2024/02/14 09:45:00;;;;;;;3.80;1.80;;;17.70;31.60;;;;;;5072926;28;20034;-72
2024/02/14 09:47:29;;;;;;;;;;;17.10;32.20;;;;;;5090380;28;20048;-72
2024/02/14 09:49:57;;;;;;;3.25;2.20;;;16.80;31.90;;;;;;5072946;28;19954;-72
2024/02/14 09:52:23;;;;;;;3.83;0.32;;;16.80;32.80;;;;;;5090727;28;20085;-73
2024/02/14 09:54:51;;;;;;;2.05;1.35;;;17.10;32.00;;;;;;5089613;28;20029;-72
2024/02/14 09:57:18;;;;;;;1.15;0.77;;;17.30;31.40;;;;;;5089690;28;20075;-72
2024/02/14 09:59:45;;;;;;;0.25;0.25;;;17.10;31.30;;;;;;5089576;28;20028;-72
2024/02/14 10:02:11;;;;;;;2.72;1.45;;;17.60;31.20;;;;;;5072043;28;20036;-72
2024/02/14 10:04:38;;;;;;;1.38;0.68;;;18.20;29.50;;;;;;5091244;28;20044;-72
2024/02/14 10:07:04;;;;;;;1.77;0.82;;;17.80;29.60;;;;;;5089774;28;20422;-72
2024/02/14 10:09:31;;;;;;;0.35;0.35;;;18.20;30.50;;;;;;5072387;28;20028;-72
2024/02/14 10:11:57;;;;;;;;;;;18.50;29.20;;;;;;5089403;28;20047;-72
2024/02/14 10:14:24;;;;;;;2.67;0.98;;;17.90;29.60;;;;;;5089607;28;19963;-72
2024/02/14 10:16:50;;;;;;;1.13;0.60;;;17.50;29.10;;;;;;5106486;28;20059;-72
2024/02/14 10:19:17;;;;;;;;;;;17.90;28.40;;;;;;5090087;28;20512;-73
2024/02/14 10:21:43;;;;;;;0.50;0.43;;;17.80;27.80;;;;;;5090261;28;19923;-72
2024/02/14 10:24:10;;;;;;;0.73;0.55;;;17.20;28.90;;;;;;5090820;28;20033;-72
2024/02/14 10:26:37;;;;;;;0.22;0.20;;;16.80;29.20;;;;;;5090684;28;20040;-72
2024/02/14 10:29:06;;;;;;;1.77;0.50;;;16.20;29.90;;;;;;5089265;28;20028;-72
2024/02/14 10:31:33;;;;;;;0.70;0.50;;;15.70;31.10;;;;;;5071975;28;20042;-72
2024/02/14 10:34:00;;;;;;;0.50;0.50;;;15.30;31.30;;;;;;5091742;28;20089;-72
2024/02/14 10:36:26;;;;;;;0.38;0.28;;;15.30;30.90;;;;;;5094697;28;20039;-72
2024/02/14 10:38:52;;;;;;;;;;;16.10;30.80;;;;;;5093586;28;20043;-72
2024/02/14 10:41:18;;;;;;;2.72;2.28;;;15.90;30.80;;;;;;5092346;28;19919;-72
2024/02/14 10:43:45;;;;;;;0.43;0.38;;;15.40;32.20;;;;;;5076067;28;20422;-72
2024/02/14 10:49:07;;;;;;;0.98;0.60;;;15.60;29.90;;;;;;5092898;28;20059;-72
2024/02/14 10:51:35;;;;;;;0.63;0.40;;;15.40;29.30;;;;;;5092486;28;20532;-72
2024/02/14 10:54:09;;;;;;;0.63;0.30;;;16.00;29.30;;;;;;5093125;28;20381;-72
2024/02/14 10:56:39;;;;;;;0.90;0.57;;;16.50;28.10;;;;;;5093055;28;20064;-72
2024/02/14 10:59:09;;;;;;;0.30;0.30;;;16.70;28.10;;;;;;5093763;28;20036;-72
2024/02/14 11:01:36;;;;;;;1.55;0.43;;;16.80;28.70;;;;;;5092223;28;20515;-72
2024/02/14 11:06:54;;;;;;;0.30;0.25;;;16.20;28.50;;;;;;5093042;28;20040;-72
2024/02/14 11:09:20;;;;;;;0.70;0.40;;;15.80;30.20;;;;;;5093689;28;20109;-72
2024/02/14 11:11:46;;;;;;;0.20;0.20;;;16.80;29.40;;;;;;5074781;28;20043;-72
2024/02/14 11:14:41;;;;;;;1.55;0.47;;;17.50;27.90;;;;;;5092599;28;20043;-72
2024/02/14 11:17:27;;;;;;;0.40;0.20;;;17.10;28.30;;;;;;5092611;28;20044;-72
2024/02/14 11:19:53;;;;;;;0.25;0.25;;;16.90;27.00;;;;;;5075619;28;20028;-72
2024/02/14 11:22:21;;;;;;;0.20;0.20;;;17.30;28.10;;;;;;5074668;28;20065;-72
2024/02/14 11:24:48;;;;;;;0.22;0.15;;;17.70;27.60;;;;;;5092371;28;20020;-72
2024/02/14 11:27:20;;;;;;;0.45;0.30;;;18.90;26.00;;;;;;5092246;28;20040;-72
2024/02/14 11:30:06;;;;;;;1.02;0.65;;;19.20;25.10;;;;;;5092158;28;20059;-72
2024/02/14 11:32:32;;;;;;;0.10;0.10;;;19.00;25.60;;;;;;5091907;28;20560;-72
2024/02/14 11:34:59;;;;;;;2.30;0.40;;;18.90;26.00;;;;;;5092280;28;20413;-72
2024/02/14 11:37:36;;;;;;;;;;;19.00;25.90;;;;;;5092737;28;20063;-72
2024/02/14 11:40:02;;;;;;;0.30;0.28;;;18.50;25.50;;;;;;5091923;28;20387;-72
2024/02/14 11:42:28;;;;;;;;;;;18.40;26.10;;;;;;5075395;28;20448;-72
2024/02/14 11:44:57;;;;;;;0.90;0.68;;;18.10;26.60;;;;;;5092387;28;19912;-72
2024/02/14 11:47:24;;;;;;;0.45;0.43;;;18.70;27.60;;;;;;5093008;28;20047;-72
2024/02/14 11:49:50;;;;;;;8.20;0.80;;;20.20;24.10;;;;;;5074787;28;20065;-72
2024/02/14 11:52:17;;;;;;;0.52;0.38;;;20.40;22.90;;;;;;5091118;28;20125;-72
2024/02/14 11:55:02;;;;;;;0.20;0.20;;;20.40;23.00;;;;;;5091903;28;20058;-72
2024/02/14 11:57:28;;;;;;;0.52;0.40;;;19.90;24.20;;;;;;5092958;28;20028;-72
2024/02/14 11:59:55;;;;;;;0.15;0.15;;;20.60;23.60;;;;;;5092819;28;20054;-73
2024/02/14 12:02:22;;;;;;;0.32;0.30;;;21.30;22.90;;;;;;5074249;28;20047;-72
2024/02/14 12:04:50;;;;;;;0.25;0.15;;;21.30;21.40;;;;;;5074863;28;20500;-72
2024/02/14 12:07:16;;;;;;;0.60;0.20;;;21.00;22.30;;;;;;5091541;28;20382;-72
2024/02/14 12:09:43;;;;;;;1.05;0.57;;;20.70;23.20;;;;;;5092439;28;20024;-72
2024/02/14 12:12:10;;;;;;;1.08;0.20;;;20.90;22.80;;;;;;5091996;28;20063;-72
2024/02/14 12:14:36;;;;;;;0.85;0.63;;;21.40;22.00;;;;;;5092703;28;20111;-72
2024/02/14 12:17:03;;;;;;;0.30;0.30;;;22.20;21.00;;;;;;5092762;28;20101;-72
2024/02/14 12:19:29;;;;;;;0.25;0.25;;;21.70;21.10;;;;;;5092437;28;20086;-72
2024/02/14 12:21:56;;;;;;;;;;;20.40;22.70;;;;;;5092442;28;20060;-72
2024/02/14 12:24:23;;;;;;;0.52;0.40;;;20.00;23.00;;;;;;5092535;28;19959;-72
2024/02/14 12:26:52;;;;;;;0.10;0.10;;;20.10;23.60;;;;;;5074117;28;20048;-72
2024/02/14 12:29:18;;;;;;;0.55;0.28;;;21.10;22.10;;;;;;5092218;28;20028;-72
2024/02/14 12:31:47;;;;;;;2.03;1.02;;;22.10;21.60;;;;;;5090318;28;20067;-72
2024/02/14 12:34:13;;;;;;;0.50;0.35;;;21.70;21.30;;;;;;5107799;28;20067;-72
2024/02/14 12:36:39;;;;;;;0.52;0.35;;;21.40;22.20;;;;;;5092203;28;20074;-72
2024/02/14 12:39:06;;;;;;;;;;;21.40;22.00;;;;;;5091247;28;20434;-72
2024/02/14 12:41:35;;;;;;;0.88;0.60;;;22.20;21.20;;;;;;5090283;28;19927;-72
2024/02/14 12:44:01;;;;;;;0.20;0.20;;;23.80;19.50;;;;;;5090905;28;20032;-72
2024/02/14 12:46:27;;;;;;;0.22;0.20;;;24.20;19.90;;;;;;5090722;28;20020;-72
2024/02/14 12:48:54;;;;;;;1.92;1.33;;;23.90;19.50;;;;;;5090657;28;20032;-72
2024/02/14 12:51:20;;;;;;;1.45;0.50;;;24.10;19.50;;;;;;5091168;28;20122;-72
2024/02/14 12:53:46;;;;;;;;;;;25.20;18.20;;;;;;5092318;28;20085;-72
2024/02/14 12:56:12;;;;;;;0.70;0.55;;;26.20;17.00;;;;;;5090211;28;20351;-73
2024/02/14 12:58:38;;;;;;;0.60;0.45;;;26.90;15.30;;;;;;5090413;28;20122;-72
2024/02/14 13:01:09;;;;;;;;;;;27.30;16.20;;;;;;5091907;28;20515;-72
2024/02/14 13:03:35;;;;;;;1.10;0.65;;;28.30;14.80;;;;;;5091538;28;19916;-72
2024/02/14 13:06:01;;;;;;;0.45;0.40;;;28.80;14.60;;;;;;5091684;28;20044;-72
2024/02/14 13:08:28;;;;;;;3.20;1.55;;;29.50;14.20;;;;;;5091990;28;20047;-72
2024/02/14 13:10:54;;;;;;;0.40;0.40;;;29.30;13.60;;;;;;5072533;28;20047;-72
2024/02/14 13:13:21;;;;;;;0.77;0.60;;;28.60;14.40;;;;;;5090628;28;20110;-72